Time;durP1;ratioP1;P1;durP2;ratioP2;P2;SDS_P1;SDS_P2;PMS_P1;PMS_P2;Temp;Humidity;BMP_temperature;BMP_pressure;BME280_temperature;BME280_humidity;BME280_pressure;Samples;Min_cycle;Max_cycle;Signal;HPM_P1;HPM_P2
2023/07/06 00:01:24;;;;;;;0.00;0.00;;;;;;;17.37;nan;100636.75;4962089;28;20927;-83
2023/07/06 00:03:51;;;;;;;0.00;0.00;;;;;;;17.33;nan;100640.03;4961825;28;20411;-83
2023/07/06 00:06:17;;;;;;;0.00;0.00;;;;;;;17.30;nan;100627.88;4962755;28;20900;-84
2023/07/06 00:08:42;;;;;;;0.03;0.03;;;;;;;17.29;nan;100636.09;4971993;28;21082;-82
2023/07/06 00:11:09;;;;;;;0.00;0.00;;;;;;;17.29;nan;100642.25;4963520;28;20412;-83
2023/07/06 00:13:36;;;;;;;0.00;0.00;;;;;;;17.30;nan;100635.88;4980261;28;20447;-83
2023/07/06 00:16:01;;;;;;;0.00;0.00;;;;;;;17.32;nan;100638.38;4961971;28;20812;-83
2023/07/06 00:18:27;;;;;;;0.00;0.00;;;;;;;17.38;nan;100633.09;4968678;28;20393;-83
2023/07/06 00:20:53;;;;;;;0.03;0.03;;;;;;;17.33;nan;100637.38;4961435;28;20492;-83
2023/07/06 00:23:18;;;;;;;0.00;0.00;;;;;;;17.29;nan;100636.09;4980135;28;20478;-83
2023/07/06 00:25:44;;;;;;;0.00;0.00;;;;;;;17.26;nan;100642.66;4980525;28;20404;-83
2023/07/06 00:28:11;;;;;;;0.00;0.00;;;;;;;17.22;nan;100646.72;4964618;28;20931;-82
2023/07/06 00:31:06;;;;;;;0.10;0.10;;;;;;;17.22;nan;100643.22;4991405;28;20398;-82
2023/07/06 00:33:26;;;;;;;0.00;0.00;;;;;;;17.14;nan;100645.03;4978474;28;20415;-82
2023/07/06 00:35:52;;;;;;;0.00;0.00;;;;;;;17.09;nan;100639.44;4963146;28;20434;-83
2023/07/06 00:38:21;;;;;;;0.00;0.00;;;;;;;17.10;nan;100646.41;4991004;28;20444;-81
2023/07/06 00:40:49;;;;;;;0.10;0.10;;;;;;;16.86;nan;100646.81;4962931;28;20027;-82
2023/07/06 00:43:20;;;;;;;;;;;;;;;16.46;nan;100643.66;4981128;28;20088;-83
2023/07/06 00:45:47;;;;;;;;;;;;;;;16.21;nan;100646.66;4981168;28;20392;-81
2023/07/06 00:48:20;;;;;;;;;;;;;;;15.99;nan;100639.56;4981687;28;19926;-82
2023/07/06 00:50:48;;;;;;;;;;;;;;;15.79;nan;100636.63;4985082;28;19914;-83
2023/07/06 00:53:14;;;;;;;;;;;;;;;15.56;nan;100642.81;4977919;28;20381;-82
2023/07/06 00:55:42;;;;;;;;;;;;;;;15.33;nan;100644.72;4978227;28;19914;-82
2023/07/06 00:58:22;;;;;;;;;;;;;;;15.14;nan;100644.19;4977185;28;19960;-82
2023/07/06 01:00:48;;;;;;;;;;;;;;;14.92;nan;100645.88;4978031;28;19914;-83
2023/07/06 01:03:16;;;;;;;;;;;;;;;14.76;nan;100641.47;4959129;28;19929;-83
2023/07/06 01:05:41;;;;;;;;;;;;;;;14.64;nan;100642.88;4977724;28;20004;-83
2023/07/06 01:08:11;;;;;;;;;;;;;;;14.49;nan;100649.91;4977957;28;19957;-83
2023/07/06 01:10:39;;;;;;;;;;;;;;;14.38;nan;100643.97;4960668;28;19924;-83
2023/07/06 01:13:04;;;;;;;;;;;;;;;14.27;nan;100643.53;4959495;28;19922;-82
2023/07/06 01:15:32;;;;;;;;;;;;;;;14.21;nan;100647.72;4982866;28;19921;-83
2023/07/06 01:18:02;;;;;;;;;;;;;;;14.21;nan;100639.75;4963998;28;19934;-83
2023/07/06 01:20:34;;;;;;;;;;;;;;;14.21;nan;100647.72;4977542;28;19934;-83
2023/07/06 01:23:02;;;;;;;;;;;;;;;14.16;nan;100645.56;4976476;28;20005;-83
2023/07/06 01:25:40;;;;;;;;;;;;;;;14.15;nan;100643.91;4977625;28;20013;-83
2023/07/06 01:28:30;;;;;;;;;;;;;;;14.10;nan;100642.78;4978687;28;19914;-83
2023/07/06 01:31:02;;;;;;;;;;;;;;;14.01;nan;100647.28;4981231;28;19921;-82
2023/07/06 01:33:48;;;;;;;0.20;0.20;;;;;;;13.93;nan;100642.00;4973409;28;19918;-82
2023/07/06 01:36:22;;;;;;;0.20;0.20;;;;;;;13.84;nan;100643.00;4964164;28;20465;-82
2023/07/06 01:38:48;;;;;;;0.20;0.20;;;;;;;13.76;nan;100642.03;4975881;28;20447;-82
2023/07/06 01:41:24;;;;;;;0.20;0.20;;;;;;;13.74;nan;100643.19;4976359;28;20039;-82
2023/07/06 01:43:49;;;;;;;0.20;0.20;;;;;;;13.71;nan;100641.72;4957159;28;20035;-82
2023/07/06 01:46:15;;;;;;;0.20;0.20;;;;;;;13.70;nan;100641.88;4975725;28;20126;-82
2023/07/06 01:48:40;;;;;;;0.10;0.10;;;;;;;13.70;nan;100645.34;4982130;28;20050;-82
2023/07/06 01:51:08;;;;;;;0.10;0.10;;;;;;;13.70;nan;100641.88;4983070;28;20035;-82
2023/07/06 01:53:52;;;;;;;0.20;0.20;;;;;;;13.65;nan;100645.03;4970474;28;20051;-82
2023/07/06 01:56:24;;;;;;;0.20;0.20;;;;;;;13.60;nan;100647.38;4976623;28;20031;-83
2023/07/06 01:59:01;;;;;;;0.10;0.10;;;;;;;13.57;nan;100645.06;4950494;28;20030;-82
2023/07/06 02:01:36;;;;;;;0.20;0.20;;;;;;;13.55;nan;100641.75;4968634;28;20097;-83
2023/07/06 02:04:06;;;;;;;0.20;0.20;;;;;;;13.55;nan;100642.56;4957582;28;20199;-82
2023/07/06 02:06:33;;;;;;;0.20;0.20;;;;;;;13.56;nan;100646.03;4955680;28;20091;-82
2023/07/06 02:08:58;;;;;;;0.13;0.13;;;;;;;13.56;nan;100640.72;4966968;28;20510;-82
2023/07/06 02:11:24;;;;;;;0.20;0.20;;;;;;;13.55;nan;100641.75;4957523;28;20039;-82
2023/07/06 02:13:50;;;;;;;0.20;0.20;;;;;;;13.55;nan;100641.75;4975565;28;20042;-81
2023/07/06 02:16:15;;;;;;;0.20;0.20;;;;;;;13.54;nan;100634.78;4975842;28;20038;-82
2023/07/06 02:18:41;;;;;;;0.20;0.20;;;;;;;13.51;nan;100633.25;4976707;28;20074;-82
2023/07/06 02:21:07;;;;;;;0.20;0.20;;;;;;;13.56;nan;100638.06;4975713;28;20042;-82
2023/07/06 02:23:32;;;;;;;0.20;0.20;;;;;;;13.59;nan;100637.75;4957971;28;20665;-82
2023/07/06 02:25:58;;;;;;;0.20;0.20;;;;;;;13.57;nan;100637.09;4975195;28;20406;-82
2023/07/06 02:28:24;;;;;;;0.20;0.20;;;;;;;13.56;nan;100643.38;4958227;28;20027;-82
2023/07/06 02:30:50;;;;;;;0.20;0.20;;;;;;;13.51;nan;100643.06;4957528;28;20035;-82
2023/07/06 02:33:16;;;;;;;0.20;0.20;;;;;;;13.49;nan;100632.63;4973355;28;20129;-83
2023/07/06 02:35:47;;;;;;;0.10;0.10;;;;;;;13.49;nan;100642.41;4958385;28;20031;-82
2023/07/06 02:38:17;;;;;;;0.20;0.20;;;;;;;13.46;nan;100640.91;4958084;28;20031;-81
2023/07/06 02:40:43;;;;;;;0.20;0.20;;;;;;;13.42;nan;100636.09;4975846;28;20457;-83
2023/07/06 02:43:08;;;;;;;0.20;0.20;;;;;;;13.40;nan;100640.78;4954583;28;20027;-83
2023/07/06 02:45:35;;;;;;;0.20;0.20;;;;;;;13.36;nan;100641.09;4958780;28;20023;-82
2023/07/06 02:48:01;;;;;;;0.13;0.13;;;;;;;13.33;nan;100637.94;4975579;28;20618;-83
2023/07/06 02:50:27;;;;;;;0.20;0.20;;;;;;;13.33;nan;100643.25;4959817;28;21134;-83
2023/07/06 02:52:52;;;;;;;0.20;0.20;;;;;;;13.38;nan;100633.78;4957424;28;20458;-83
2023/07/06 02:55:18;;;;;;;0.20;0.20;;;;;;;13.50;nan;100641.41;4959371;28;20093;-83
2023/07/06 02:57:43;;;;;;;0.20;0.20;;;;;;;13.56;nan;100635.41;4959202;28;20039;-83
2023/07/06 03:00:12;;;;;;;0.10;0.10;;;;;;;13.60;nan;100631.44;4959704;28;20097;-83
2023/07/06 03:02:38;;;;;;;0.20;0.20;;;;;;;13.63;nan;100633.75;4955779;29;20032;-83
2023/07/06 03:05:05;;;;;;;0.20;0.20;;;;;;;13.65;nan;100631.75;4973846;28;20560;-83
2023/07/06 03:07:34;;;;;;;0.20;0.20;;;;;;;13.67;nan;100631.59;4977712;28;20030;-83
2023/07/06 03:10:04;;;;;;;0.20;0.20;;;;;;;13.68;nan;100634.09;4978206;28;20135;-82
2023/07/06 03:12:33;;;;;;;0.20;0.20;;;;;;;13.68;nan;100644.72;4960663;28;20122;-83
2023/07/06 03:14:59;;;;;;;0.20;0.20;;;;;;;13.68;nan;100638.56;4978098;28;20035;-83
2023/07/06 03:17:25;;;;;;;0.10;0.10;;;;;;;13.68;nan;100636.75;4981670;28;20038;-83
2023/07/06 03:19:51;;;;;;;0.20;0.20;;;;;;;13.64;nan;100634.59;4976939;28;20034;-82
2023/07/06 03:22:17;;;;;;;0.20;0.20;;;;;;;13.59;nan;100643.06;4976042;28;20127;-82
2023/07/06 03:24:44;;;;;;;0.20;0.20;;;;;;;13.55;nan;100637.25;4959282;28;20086;-83
2023/07/06 03:27:10;;;;;;;0.20;0.20;;;;;;;13.53;nan;100641.06;4977204;28;20030;-83
2023/07/06 03:29:36;;;;;;;0.20;0.20;;;;;;;13.50;nan;100644.06;4976614;28;20109;-82
2023/07/06 03:32:01;;;;;;;0.20;0.20;;;;;;;13.47;nan;100649.72;4975579;28;20051;-82
2023/07/06 03:34:27;;;;;;;0.20;0.20;;;;;;;13.46;nan;100651.53;4959280;28;20066;-83
2023/07/06 03:36:52;;;;;;;0.20;0.20;;;;;;;13.45;nan;100644.56;4961835;28;20046;-85
2023/07/06 03:39:18;;;;;;;0.20;0.20;;;;;;;13.44;nan;100642.06;4977208;28;20063;-86
2023/07/06 03:41:43;;;;;;;0.20;0.20;;;;;;;13.41;nan;100648.56;4960354;28;20054;-85
2023/07/06 03:44:09;;;;;;;0.20;0.20;;;;;;;13.44;nan;100650.06;4959785;28;20495;-85
2023/07/06 03:46:36;;;;;;;0.20;0.20;;;;;;;13.41;nan;100651.22;4965726;28;20030;-86
2023/07/06 03:49:08;;;;;;;0.20;0.20;;;;;;;13.41;nan;100658.38;4972575;28;20083;-86
2023/07/06 03:51:33;;;;;;;0.20;0.20;;;;;;;13.37;nan;100656.03;4977197;28;20038;-86
2023/07/06 03:53:58;;;;;;;0.10;0.10;;;;;;;13.35;nan;100652.72;4959197;28;20034;-86
2023/07/06 03:56:27;;;;;;;0.20;0.20;;;;;;;13.36;nan;100654.38;4977422;28;20035;-87
2023/07/06 03:58:57;;;;;;;0.20;0.20;;;;;;;13.38;nan;100651.56;4960830;28;20038;-85
2023/07/06 04:01:28;;;;;;;0.20;0.20;;;;;;;13.43;nan;100653.72;4942910;29;20527;-87
2023/07/06 04:03:55;;;;;;;0.20;0.20;;;;;;;13.44;nan;100655.38;4960037;28;20084;-87
2023/07/06 04:06:23;;;;;;;0.20;0.20;;;;;;;13.47;nan;100655.03;4944926;28;20094;-85
2023/07/06 04:08:49;;;;;;;0.20;0.20;;;;;;;13.51;nan;100656.34;4970654;28;20071;-86
2023/07/06 04:11:14;;;;;;;0.20;0.20;;;;;;;13.52;nan;100661.50;4984978;28;20046;-86
2023/07/06 04:13:40;;;;;;;0.20;0.20;;;;;;;13.51;nan;100665.16;4959276;28;20038;-86
2023/07/06 04:16:15;;;;;;;0.20;0.20;;;;;;;13.46;nan;100667.47;4959411;28;20034;-86
2023/07/06 04:18:41;;;;;;;0.13;0.13;;;;;;;13.43;nan;100667.81;4960395;28;20089;-86
2023/07/06 04:21:06;;;;;;;0.20;0.20;;;;;;;13.45;nan;100671.13;4961034;28;20113;-87
2023/07/06 04:23:32;;;;;;;0.20;0.20;;;;;;;13.55;nan;100669.13;4960740;28;20033;-87
2023/07/06 04:25:59;;;;;;;0.10;0.10;;;;;;;13.68;nan;100675.75;4951689;28;20045;-87
2023/07/06 04:28:24;;;;;;;0.10;0.10;;;;;;;13.78;nan;100677.25;4972367;28;20038;-86
2023/07/06 04:30:50;;;;;;;0.20;0.20;;;;;;;13.84;nan;100674.91;4963869;28;20039;-86
2023/07/06 04:33:19;;;;;;;0.10;0.10;;;;;;;13.90;nan;100675.06;4963983;28;20089;-87
2023/07/06 04:35:54;;;;;;;0.10;0.10;;;;;;;13.95;nan;100675.38;4954818;28;20061;-86
2023/07/06 04:38:21;;;;;;;0.20;0.20;;;;;;;14.03;nan;100675.34;4963276;28;20483;-87
2023/07/06 04:40:49;;;;;;;0.20;0.20;;;;;;;14.08;nan;100676.66;4964261;28;20486;-86
2023/07/06 04:43:15;;;;;;;0.17;0.17;;;;;;;14.19;nan;100681.63;4964125;28;20042;-87
2023/07/06 04:45:40;;;;;;;0.13;0.13;;;;;;;14.21;nan;100683.13;4981961;28;20038;-86
2023/07/06 04:48:07;;;;;;;0.10;0.10;;;;;;;14.19;nan;100686.94;4980539;28;20042;-85
2023/07/06 04:50:37;;;;;;;0.17;0.17;;;;;;;14.36;nan;100685.88;4963285;28;20030;-86
2023/07/06 04:53:04;;;;;;;0.10;0.10;;;;;;;14.42;nan;100687.03;4980059;28;20051;-85
2023/07/06 04:55:30;;;;;;;0.10;0.10;;;;;;;14.47;nan;100690.00;4985596;28;20041;-87
2023/07/06 04:57:57;;;;;;;;;;;;;;;14.56;nan;100689.00;4984308;28;20031;-87
2023/07/06 05:00:26;;;;;;;0.20;0.20;;;;;;;14.61;nan;100691.97;4963479;28;19918;-87
2023/07/06 05:02:53;;;;;;;0.20;0.20;;;;;;;14.71;nan;100690.94;4963371;28;20118;-87
2023/07/06 05:05:19;;;;;;;0.20;0.20;;;;;;;14.88;nan;100689.00;4984370;28;20030;-87
2023/07/06 05:07:46;;;;;;;0.10;0.10;;;;;;;14.98;nan;100695.72;4968779;28;20541;-86
2023/07/06 05:10:12;;;;;;;0.13;0.13;;;;;;;15.00;nan;100699.06;4963127;28;20109;-87
2023/07/06 05:12:37;;;;;;;0.10;0.10;;;;;;;15.03;nan;100696.03;4978641;28;20035;-87
2023/07/06 05:15:03;;;;;;;0.13;0.13;;;;;;;15.11;nan;100691.66;4980448;28;20049;-86
2023/07/06 05:17:29;;;;;;;0.10;0.10;;;;;;;15.18;nan;100695.25;4963745;28;20039;-87
2023/07/06 05:19:54;;;;;;;0.17;0.17;;;;;;;15.26;nan;100693.38;4979170;28;20058;-87
2023/07/06 05:22:19;;;;;;;0.10;0.10;;;;;;;15.41;nan;100696.09;4980037;28;20332;-88
2023/07/06 05:24:45;;;;;;;0.10;0.10;;;;;;;15.62;nan;100695.41;4963742;28;20035;-87
2023/07/06 05:27:11;;;;;;;0.10;0.10;;;;;;;15.77;nan;100697.31;4972042;28;20588;-86
2023/07/06 05:29:36;;;;;;;0.10;0.10;;;;;;;16.07;nan;100700.84;4979310;28;20404;-86
2023/07/06 05:32:02;;;;;;;0.10;0.10;;;;;;;16.43;nan;100705.44;4960739;28;20404;-87
2023/07/06 05:34:27;;;;;;;0.10;0.10;;;;;;;16.82;nan;100704.28;4962617;28;20411;-86
2023/07/06 05:36:53;;;;;;;0.03;0.03;;;;;;;17.02;nan;100696.47;4983833;28;20420;-84
2023/07/06 05:39:19;;;;;;;;;;;;;;;17.03;nan;100706.97;4981817;28;20093;-83
2023/07/06 05:41:44;;;;;;;0.10;0.10;;;;;;;17.17;nan;100705.25;4981241;28;19910;-84
2023/07/06 05:44:09;;;;;;;0.10;0.10;;;;;;;17.32;nan;100710.53;4980777;28;20023;-86
2023/07/06 05:46:35;;;;;;;0.10;0.10;;;;;;;17.31;nan;100707.03;4982074;28;20317;-85
2023/07/06 05:49:00;;;;;;;0.10;0.10;;;;;;;17.44;nan;100709.00;4981431;28;20042;-86
2023/07/06 05:51:26;;;;;;;0.10;0.10;;;;;;;17.67;nan;100713.31;4997207;28;20050;-85
2023/07/06 05:53:51;;;;;;;0.10;0.10;;;;;;;18.02;nan;100716.91;4984432;28;20091;-84
2023/07/06 05:56:18;;;;;;;0.10;0.10;;;;;;;18.49;nan;100719.81;4979756;28;20087;-86
2023/07/06 05:58:44;;;;;;;;;;;;;;;18.86;nan;100711.34;4963440;28;20070;-85
2023/07/06 06:01:09;;;;;;;;;;;;;;;19.29;nan;100726.28;4982089;28;19957;-86
2023/07/06 06:03:35;;;;;;;;;;;;;;;19.69;nan;100721.78;4981441;28;19906;-86
2023/07/06 06:06:00;;;;;;;0.10;0.10;;;;;;;20.15;nan;100722.75;4981795;28;19918;-86
2023/07/06 06:08:26;;;;;;;0.10;0.10;;;;;;;20.46;nan;100722.03;4987142;28;20519;-86
2023/07/06 06:10:52;;;;;;;0.10;0.10;;;;;;;20.78;nan;100725.69;4994357;28;20078;-86
2023/07/06 06:13:18;;;;;;;0.10;0.10;;;;;;;21.20;nan;100725.22;4980618;28;20031;-86
2023/07/06 06:15:43;;;;;;;0.10;0.10;;;;;;;21.32;nan;100723.47;4981056;28;20062;-86
2023/07/06 06:18:09;;;;;;;0.10;0.10;;;;;;;21.71;nan;100729.59;4981069;28;20094;-85
2023/07/06 06:20:36;;;;;;;0.10;0.10;;;;;;;22.04;nan;100728.47;4980867;28;20258;-86
2023/07/06 06:23:04;;;;;;;0.10;0.10;;;;;;;22.34;nan;100655.06;4977215;28;20059;-89
2023/07/06 06:25:30;;;;;;;0.10;0.10;;;;;;;22.78;nan;100669.19;4961084;28;20047;-86
2023/07/06 06:27:56;;;;;;;0.00;0.00;;;;;;;;;;4976822;28;20015;-86
2023/07/06 06:30:21;;;;;;;0.08;0.08;;;;;;;;;;4978441;28;20027;-86
2023/07/06 06:32:47;;;;;;;0.00;0.00;;;;;;;23.92;nan;100623.94;4995753;28;20053;-80
2023/07/06 06:35:23;;;;;;;0.00;0.00;;;;;;;24.19;nan;100630.69;4995642;28;20053;-81
2023/07/06 06:37:48;;;;;;;0.00;0.00;;;;;;;;;;4999930;28;20026;-82
2023/07/06 06:40:14;;;;;;;0.00;0.00;;;;;;;24.54;nan;100607.06;4978657;28;20081;-81
2023/07/06 06:42:40;;;;;;;0.00;0.00;;;;;;;;;;4979340;28;20027;-82
2023/07/06 06:45:06;;;;;;;0.00;0.00;;;;;;;24.87;nan;100642.56;4996416;28;20192;-80
2023/07/06 06:47:32;;;;;;;0.00;0.00;;;;;;;24.94;nan;100632.41;4995632;28;20043;-80
2023/07/06 06:49:58;;;;;;;0.00;0.00;;;;;;;24.98;nan;100634.38;5002948;28;20050;-81
2023/07/06 06:52:23;;;;;;;0.00;0.00;;;;;;;24.86;nan;100627.38;4999039;28;20114;-82
2023/07/06 06:54:52;;;;;;;0.00;0.00;;;;;;;25.25;nan;100633.75;4993745;28;20046;-82
2023/07/06 06:57:20;;;;;;;0.00;0.00;;;;;;;;;;4995843;28;20022;-80
2023/07/06 06:59:47;;;;;;;0.00;0.00;;;;;;;25.73;nan;100651.25;4979730;28;20047;-80
2023/07/06 07:02:13;;;;;;;0.00;0.00;;;;;;;25.84;nan;100630.53;4986271;28;20062;-81
2023/07/06 07:04:38;;;;;;;0.00;0.00;;;;;;;25.83;nan;100643.25;4979254;28;20030;-80
2023/07/06 07:07:04;;;;;;;0.00;0.00;;;;;;;;;;4979546;28;20083;-81
2023/07/06 07:09:29;;;;;;;0.00;0.00;;;;;;;;;;4979719;28;20027;-81
2023/07/06 07:11:54;;;;;;;0.00;0.00;;;;;;;;;;4979865;28;20074;-81
2023/07/06 07:14:19;;;;;;;0.00;0.00;;;;;;;;;;4978635;28;20045;-80
2023/07/06 07:16:45;;;;;;;0.00;0.00;;;;;;;26.31;nan;100678.03;4979835;28;20031;-81
2023/07/06 07:19:10;;;;;;;0.00;0.00;;;;;;;26.19;nan;100691.72;4986767;28;20175;-81
2023/07/06 07:21:35;;;;;;;0.00;0.00;;;;;;;26.45;nan;100635.91;4979268;28;20023;-81
2023/07/06 07:24:01;;;;;;;0.00;0.00;;;;;;;26.79;nan;100649.28;4980015;28;20043;-81
2023/07/06 07:26:27;;;;;;;0.00;0.00;;;;;;;26.85;nan;100706.06;4979473;28;20035;-79
2023/07/06 07:28:53;;;;;;;0.00;0.00;;;;;;;26.62;nan;100635.81;4980286;28;20039;-80
2023/07/06 07:31:19;;;;;;;0.00;0.00;;;;;;;26.79;nan;100650.13;4995303;28;20026;-81
2023/07/06 07:33:46;;;;;;;0.00;0.00;;;;;;;27.32;nan;100651.13;4991709;28;20047;-81
2023/07/06 07:36:12;;;;;;;0.00;0.00;;;;;;;;;;4996020;28;20031;-81
2023/07/06 07:38:38;;;;;;;0.00;0.00;;;;;;;28.01;nan;100640.41;5001974;28;20034;-80
2023/07/06 07:41:06;;;;;;;0.00;0.00;;;;;;;28.20;nan;100648.91;4986849;28;20026;-80
2023/07/06 07:43:32;;;;;;;0.00;0.00;;;;;;;;;;4996593;28;20052;-80
2023/07/06 07:46:01;;;;;;;0.00;0.00;;;;;;;27.74;nan;100646.78;4979867;28;20039;-82
2023/07/06 07:48:27;;;;;;;0.00;0.00;;;;;;;27.84;nan;100630.59;4982724;28;20035;-80
2023/07/06 07:50:56;;;;;;;0.00;0.00;;;;;;;28.15;nan;100653.28;5001398;28;20027;-81
2023/07/06 07:53:22;;;;;;;0.00;0.00;;;;;;;;;;4995450;28;20026;-79
2023/07/06 07:55:49;;;;;;;0.00;0.00;;;;;;;28.16;nan;100652.19;4979440;28;20031;-81
2023/07/06 07:58:14;;;;;;;0.00;0.00;;;;;;;28.21;nan;100631.53;4963130;28;20047;-81
2023/07/06 08:00:39;;;;;;;0.00;0.00;;;;;;;28.63;nan;100625.97;4996975;28;21245;-81
2023/07/06 08:03:05;;;;;;;0.00;0.00;;;;;;;28.72;nan;100637.13;4982923;28;20204;-81
2023/07/06 08:05:31;;;;;;;0.00;0.00;;;;;;;;;;5000162;28;20026;-81
2023/07/06 08:07:57;;;;;;;0.00;0.00;;;;;;;29.84;nan;100639.81;4982721;28;20082;-81
2023/07/06 08:10:23;;;;;;;0.00;0.00;;;;;;;29.74;nan;100677.97;4981755;28;20051;-82
2023/07/06 08:12:48;;;;;;;0.00;0.00;;;;;;;29.37;nan;100656.50;4999235;28;20078;-81
2023/07/06 08:15:14;;;;;;;0.00;0.00;;;;;;;29.87;nan;100649.34;4999296;28;20026;-81
2023/07/06 08:17:41;;;;;;;0.00;0.00;;;;;;;30.25;nan;100642.38;4998976;28;20022;-81
2023/07/06 08:20:11;;;;;;;0.00;0.00;;;;;;;30.12;nan;100645.69;4998727;28;20561;-81
2023/07/06 08:22:36;;;;;;;0.00;0.00;;;;;;;30.46;nan;100650.44;4981967;28;20077;-80
2023/07/06 08:25:08;;;;;;;0.00;0.00;;;;;;;30.74;nan;100639.91;4982902;28;20248;-80
2023/07/06 08:27:35;;;;;;;0.00;0.00;;;;;;;30.73;nan;100704.63;4989551;28;20027;-81
2023/07/06 08:30:01;;;;;;;0.00;0.00;;;;;;;;;;4999166;28;20043;-81
2023/07/06 08:32:27;;;;;;;0.00;0.00;;;;;;;31.28;nan;100650.69;4994059;28;20050;-81
2023/07/06 08:34:55;;;;;;;0.00;0.00;;;;;;;29.82;nan;100647.44;4981867;28;20043;-80
2023/07/06 08:37:21;;;;;;;0.00;0.00;;;;;;;28.72;nan;100629.78;4982690;28;20120;-86
2023/07/06 08:39:46;;;;;;;0.00;0.00;;;;;;;;;;4978269;28;20027;-85
2023/07/06 08:42:18;;;;;;;0.00;0.00;;;;;;;29.67;nan;100650.19;4975070;28;20509;-82
2023/07/06 08:44:55;;;;;;;0.00;0.00;;;;;;;30.38;nan;100637.41;4969002;28;20101;-82
2023/07/06 08:47:25;;;;;;;0.00;0.00;;;;;;;30.49;nan;100638.97;4989229;28;20070;-80
2023/07/06 08:49:51;;;;;;;0.00;0.00;;;;;;;29.71;nan;100651.28;4982911;28;20392;-83
2023/07/06 08:52:18;;;;;;;0.00;0.00;;;;;;;;;;4954079;28;20042;-83
2023/07/06 08:54:48;;;;;;;0.00;0.00;;;;;;;29.22;nan;100635.53;4967420;28;20042;-82
2023/07/06 08:57:23;;;;;;;0.00;0.00;;;;;;;30.09;nan;100640.78;4969944;28;20034;-87
2023/07/06 08:59:49;;;;;;;0.00;0.00;;;;;;;;;;4975891;28;20073;-81
2023/07/06 09:02:24;;;;;;;0.00;0.00;;;;;;;31.79;nan;100645.81;4985170;28;20091;-82
2023/07/06 09:04:52;;;;;;;0.00;0.00;;;;;;;32.68;nan;100648.81;4989642;28;20045;-82
2023/07/06 09:07:26;;;;;;;0.00;0.00;;;;;;;33.28;nan;100650.06;4987226;28;20031;-82
2023/07/06 09:09:54;;;;;;;0.00;0.00;;;;;;;34.01;nan;100648.38;4986232;28;20041;-83
2023/07/06 09:12:28;;;;;;;0.00;0.00;;;;;;;34.67;nan;100648.88;4980937;28;20086;-83
2023/07/06 09:14:55;;;;;;;0.00;0.00;;;;;;;;;;4986319;28;20027;-83
2023/07/06 09:17:20;;;;;;;0.00;0.00;;;;;;;;;;4983726;28;20435;-83
2023/07/06 09:19:49;;;;;;;0.00;0.00;;;;;;;33.60;nan;100647.25;4968306;28;20416;-83
2023/07/06 09:22:18;;;;;;;0.00;0.00;;;;;;;32.84;nan;100643.88;4963856;28;20046;-84
2023/07/06 09:24:45;;;;;;;0.00;0.00;;;;;;;33.53;nan;100613.09;4975809;28;20061;-83
2023/07/06 09:27:14;;;;;;;0.00;0.00;;;;;;;;;;4984437;28;20050;-83
2023/07/06 09:29:41;;;;;;;0.00;0.00;;;;;;;34.28;nan;100641.25;4978272;28;20439;-84
2023/07/06 09:32:13;;;;;;;0.00;0.00;;;;;;;;;;4996588;28;20039;-87
2023/07/06 09:34:46;;;;;;;0.00;0.00;;;;;;;;;;4979558;28;20062;-85
2023/07/06 09:37:13;;;;;;;0.00;0.00;;;;;;;;;;4997666;28;20412;-84
2023/07/06 09:39:38;;;;;;;0.00;0.00;;;;;;;;;;4997654;28;20487;-85
2023/07/06 09:42:04;;;;;;;0.00;0.00;;;;;;;;;;4995095;28;20433;-84
2023/07/06 09:44:30;;;;;;;;;;;;;;;33.52;nan;100630.69;4981884;28;20030;-85
2023/07/06 09:46:56;;;;;;;;;;;;;;;31.45;nan;100633.06;4998714;28;19921;-86
2023/07/06 09:49:23;;;;;;;;;;;;;;;31.79;nan;100630.22;5005904;28;19952;-85
2023/07/06 09:52:24;;;;;;;;;;;;;;;33.41;nan;100632.78;4997970;28;19910;-84
2023/07/06 09:54:58;;;;;;;;;;;;;;;33.84;nan;100636.09;4930169;29;19962;-86
2023/07/06 09:57:26;;;;;;;;;;;;;;;33.94;nan;100640.53;4984060;28;19938;-85
2023/07/06 09:59:52;;;;;;;;;;;;;;;32.10;nan;100630.69;4981705;28;19906;-86
2023/07/06 10:02:47;;;;;;;;;;;;;;;32.18;nan;100634.72;4977284;28;19921;-85
2023/07/06 10:05:25;;;;;;;;;;;;;;;32.74;nan;100635.84;4963864;28;19997;-86
2023/07/06 10:08:05;;;;;;;;;;;;;;;33.04;nan;100620.84;4965537;28;19921;-85
2023/07/06 10:10:33;;;;;;;;;;;;;;;32.04;nan;100623.66;4998098;28;19929;-86
2023/07/06 10:13:13;;;;;;;;;;;;;;;32.54;nan;100626.03;4990650;23;20375;-84
2023/07/06 10:15:45;;;;;;;;;;;;;;;34.06;nan;100626.31;4991822;28;19918;-83
2023/07/06 10:18:16;;;;;;;;;;;;;;;32.70;nan;100630.13;4996619;28;20362;-83
2023/07/06 10:20:53;;;;;;;;;;;;;;;32.52;nan;100628.25;4978604;28;19914;-83
2023/07/06 10:23:19;;;;;;;;;;;;;;;32.50;nan;100631.25;4975861;28;20383;-83
2023/07/06 10:26:10;;;;;;;;;;;;;;;33.41;nan;100630.06;4977244;28;19913;-83
2023/07/06 10:28:38;;;;;;;;;;;;;;;33.68;nan;100636.69;4946012;28;19924;-83
2023/07/06 10:31:06;;;;;;;;;;;;;;;34.04;nan;100631.31;4982943;28;20338;-83
2023/07/06 10:33:48;;;;;;;;;;;;;;;34.78;nan;100716.22;4976276;28;19924;-84
2023/07/06 10:36:15;;;;;;;;;;;;;;;33.29;nan;100725.66;4973552;28;20165;-84
2023/07/06 10:38:44;;;;;;;;;;;;;;;30.75;nan;100721.53;4966653;28;19922;-83
2023/07/06 10:41:09;;;;;;;;;;;;;;;29.68;nan;100719.16;4975993;28;20355;-83
2023/07/06 10:43:34;;;;;;;;;;;;;;;29.50;nan;100726.75;4993466;28;19917;-83
2023/07/06 10:46:30;;;;;;;0.00;0.00;;;;;;;29.66;nan;100721.31;4977843;28;19976;-83
2023/07/06 10:48:57;;;;;;;0.00;0.00;;;;;;;29.73;nan;100724.59;4977916;28;20297;-83
2023/07/06 10:51:25;;;;;;;0.00;0.00;;;;;;;29.52;nan;100719.13;4976262;28;20034;-83
2023/07/06 10:54:25;;;;;;;0.00;0.00;;;;;;;28.34;nan;100718.03;4998066;28;20034;-83
2023/07/06 10:57:00;;;;;;;0.00;0.00;;;;;;;28.22;nan;100722.88;4992953;28;20038;-83
2023/07/06 10:59:36;;;;;;;0.00;0.00;;;;;;;28.41;nan;100725.97;4978821;28;20042;-83
2023/07/06 11:02:22;;;;;;;0.00;0.00;;;;;;;28.74;nan;100725.56;4995338;28;20165;-83
2023/07/06 11:04:58;;;;;;;0.00;0.00;;;;;;;29.01;nan;100733.53;4977179;28;20096;-83
2023/07/06 11:07:46;;;;;;;0.00;0.00;;;;;;;30.95;nan;100726.06;4977517;28;20039;-83
2023/07/06 11:10:14;;;;;;;0.00;0.00;;;;;;;31.48;nan;100728.13;4976997;28;20038;-83
2023/07/06 11:12:55;;;;;;;0.00;0.00;;;;;;;32.08;nan;100728.63;4994178;28;20508;-83
2023/07/06 11:15:46;;;;;;;0.00;0.00;;;;;;;33.87;nan;100727.94;4987176;28;20520;-84
2023/07/06 11:18:33;;;;;;;0.00;0.00;;;;;;;35.49;nan;100732.91;4971259;28;20039;-84
2023/07/06 11:21:04;;;;;;;;;;;;;;;36.02;nan;100731.25;4996133;28;20038;-85
2023/07/06 11:23:35;;;;;;;;;;;;;;;36.27;nan;100729.72;4976152;28;20019;-84
2023/07/06 11:26:03;;;;;;;;;;;;;;;36.55;nan;100722.00;4994421;28;20422;-85
2023/07/06 11:28:29;;;;;;;;;;;;;;;36.97;nan;100727.88;4990636;28;20017;-85
2023/07/06 11:31:12;;;;;;;;;;;;;;;38.06;nan;100723.09;4972248;28;19918;-85
2023/07/06 11:34:00;;;;;;;;;;;;;;;38.59;nan;100726.34;4977524;28;19914;-86
2023/07/06 11:36:39;;;;;;;;;;;;;;;39.20;nan;100728.63;4973066;28;19977;-86
2023/07/06 11:39:11;;;;;;;;;;;;;;;38.02;nan;100716.63;4993532;28;19932;-84
2023/07/06 11:41:53;;;;;;;;;;;;;;;37.57;nan;100722.63;4991730;28;19918;-86
2023/07/06 11:44:45;;;;;;;;;;;;;;;38.24;nan;100713.56;4974239;28;19924;-85
2023/07/06 11:47:30;;;;;;;;;;;;;;;38.72;nan;100713.41;4993588;28;20494;-86
2023/07/06 11:50:00;;;;;;;;;;;;;;;37.10;nan;100715.06;4979794;28;19918;-85
2023/07/06 11:52:32;;;;;;;;;;;;;;;36.82;nan;100709.06;5005056;28;20375;-86
2023/07/06 11:55:18;;;;;;;;;;;;;;;34.77;nan;100706.31;4986235;28;19910;-85
2023/07/06 11:58:21;;;;;;;;;;;;;;;33.80;nan;100705.56;4997161;28;19914;-86
2023/07/06 12:00:52;;;;;;;;;;;;;;;34.15;nan;100704.09;4971106;28;19932;-86
2023/07/06 12:03:19;;;;;;;;;;;;;;;32.33;nan;100702.91;4996247;28;19945;-85
2023/07/06 12:05:48;;;;;;;;;;;;;;;31.81;nan;100710.03;4975446;28;19974;-85
2023/07/06 12:08:19;;;;;;;;;;;;;;;32.13;nan;100703.16;4975596;28;19926;-85
2023/07/06 12:10:48;;;;;;;;;;;;;;;33.47;nan;100696.59;4992912;28;19913;-86
2023/07/06 12:13:22;;;;;;;;;;;;;;;33.78;nan;100707.84;4991861;28;19918;-85
2023/07/06 12:15:48;;;;;;;;;;;;;;;32.86;nan;100698.38;4993323;28;19918;-85
2023/07/06 12:18:14;;;;;;;;;;;;;;;31.08;nan;100700.84;4996170;28;19984;-84
2023/07/06 12:20:40;;;;;;;;;;;;;;;29.64;nan;100695.13;4994701;28;19968;-85